createdAt,value
2023-01-18T00:01:05.861Z,10.97
2023-01-18T00:03:33.894Z,11.33
2023-01-18T00:06:02.244Z,10.40
2023-01-18T00:08:31.196Z,11.97
2023-01-18T00:11:15.577Z,11.77
2023-01-18T00:13:42.494Z,10.80
2023-01-18T00:16:13.143Z,10.63
2023-01-18T00:18:40.345Z,10.40
2023-01-18T00:21:09.283Z,10.40
2023-01-18T00:23:36.808Z,9.97
2023-01-18T00:26:09.494Z,10.70
2023-01-18T00:28:40.395Z,10.90
2023-01-18T00:31:18.654Z,11.37
2023-01-18T00:33:47.158Z,10.63
2023-01-18T00:36:14.626Z,10.60
2023-01-18T00:38:41.518Z,10.67
2023-01-18T00:41:10.382Z,10.70
2023-01-18T00:43:42.349Z,9.90
2023-01-18T00:46:14.627Z,10.43
2023-01-18T00:48:42.773Z,10.67
2023-01-18T00:51:12.061Z,10.83
2023-01-18T00:53:39.477Z,10.70
2023-01-18T00:56:10.775Z,10.40
2023-01-18T00:58:37.742Z,10.87
2023-01-18T01:01:06.304Z,10.20
2023-01-18T01:03:51.592Z,9.37
2023-01-18T01:06:48.398Z,10.30
2023-01-18T01:09:15.131Z,9.70
2023-01-18T01:12:02.149Z,11.40
2023-01-18T01:14:50.842Z,10.07
2023-01-18T01:17:36.530Z,10.60
2023-01-18T01:20:22.324Z,9.33
2023-01-18T01:23:07.335Z,10.87
2023-01-18T01:25:55.609Z,9.97
2023-01-18T01:28:25.579Z,8.93
2023-01-18T01:30:56.423Z,9.60
2023-01-18T01:33:23.265Z,9.90
2023-01-18T01:35:50.078Z,9.23
2023-01-18T01:38:16.739Z,9.70
2023-01-18T01:40:43.351Z,9.60
2023-01-18T01:43:13.456Z,9.93
2023-01-18T01:45:42.397Z,10.23
2023-01-18T01:48:10.934Z,9.73
2023-01-18T01:50:40.223Z,9.60
2023-01-18T01:53:08.587Z,10.40
2023-01-18T01:55:37.889Z,10.30
2023-01-18T01:58:18.675Z,10.17
2023-01-18T02:00:46.146Z,9.13
2023-01-18T02:03:18.562Z,9.80
2023-01-18T02:05:50.680Z,9.37
2023-01-18T02:08:22.767Z,9.27
2023-01-18T02:10:52.730Z,9.17
2023-01-18T02:13:23.693Z,9.43
2023-01-18T02:15:53.184Z,9.23
2023-01-18T02:18:26.903Z,9.07
2023-01-18T02:20:53.797Z,8.50
2023-01-18T02:23:29.522Z,8.53
2023-01-18T02:26:31.786Z,8.70
2023-01-18T02:29:15.145Z,8.73
2023-01-18T02:32:12.702Z,9.07
2023-01-18T02:34:51.859Z,9.17
2023-01-18T02:37:38.018Z,8.13
2023-01-18T02:40:34.430Z,9.43
2023-01-18T02:43:23.505Z,9.13
2023-01-18T02:46:09.179Z,8.53
2023-01-18T02:48:39.105Z,9.27
2023-01-18T02:51:06.581Z,9.33
2023-01-18T02:53:40.347Z,9.20
2023-01-18T02:56:13.669Z,8.67
2023-01-18T02:58:47.411Z,9.70
2023-01-18T03:01:28.734Z,9.10
2023-01-18T03:04:01.979Z,8.97
2023-01-18T03:06:30.033Z,9.43
2023-01-18T03:09:00.633Z,9.53
2023-01-18T03:11:33.338Z,8.37
2023-01-18T03:14:22.137Z,8.60
2023-01-18T03:17:07.400Z,9.20
2023-01-18T03:20:03.137Z,8.60
2023-01-18T03:22:55.510Z,9.30
2023-01-18T03:25:35.170Z,8.43
2023-01-18T03:28:32.648Z,8.90
2023-01-18T03:31:22.173Z,7.97
2023-01-18T03:34:05.816Z,8.47
2023-01-18T03:36:40.500Z,8.47
2023-01-18T03:39:19.109Z,8.73
2023-01-18T03:41:51.849Z,9.33
2023-01-18T03:44:41.297Z,8.27
2023-01-18T03:47:08.654Z,8.27
2023-01-18T03:49:35.928Z,8.60
2023-01-18T03:52:20.412Z,8.13
2023-01-18T03:54:51.640Z,8.43
2023-01-18T03:57:36.454Z,8.40
2023-01-18T04:00:06.100Z,8.70
2023-01-18T04:02:35.236Z,8.20
2023-01-18T04:05:04.381Z,8.57
2023-01-18T04:07:31.829Z,8.13
2023-01-18T04:09:59.824Z,7.90
2023-01-18T04:12:26.905Z,8.10
2023-01-18T04:14:56.209Z,8.47
2023-01-18T04:17:22.901Z,7.77
2023-01-18T04:19:49.505Z,7.50
2023-01-18T04:22:16.849Z,8.07
2023-01-18T04:24:43.502Z,7.93
2023-01-18T04:27:10.173Z,7.90
2023-01-18T04:29:36.837Z,8.13
2023-01-18T04:32:04.167Z,8.73
2023-01-18T04:34:30.750Z,8.00
2023-01-18T04:36:59.627Z,8.57
2023-01-18T04:39:26.440Z,8.00
2023-01-18T04:41:53.076Z,7.20
2023-01-18T04:44:22.245Z,7.67
2023-01-18T04:46:49.154Z,7.73
2023-01-18T04:49:17.486Z,7.77
2023-01-18T04:51:49.640Z,8.07
2023-01-18T04:54:18.336Z,7.80
2023-01-18T04:56:47.480Z,7.20
2023-01-18T04:59:17.799Z,8.23
2023-01-18T05:01:44.523Z,8.23
2023-01-18T05:04:11.257Z,8.40
2023-01-18T05:06:38.032Z,7.60
2023-01-18T05:09:04.868Z,7.67
2023-01-18T05:11:31.428Z,8.07
2023-01-18T05:14:00.336Z,7.73
2023-01-18T05:16:27.804Z,8.37
2023-01-18T05:18:54.667Z,8.10
2023-01-18T05:21:21.646Z,8.70
2023-01-18T05:23:50.810Z,8.47
2023-01-18T05:26:19.783Z,8.50
2023-01-18T05:28:47.557Z,7.80
2023-01-18T05:31:15.755Z,8.20
2023-01-18T05:33:42.798Z,8.00
2023-01-18T05:36:09.893Z,8.77
2023-01-18T05:38:36.573Z,8.93
2023-01-18T05:41:03.556Z,8.70
2023-01-18T05:43:30.353Z,10.40
2023-01-18T05:45:57.739Z,9.40
2023-01-18T05:48:24.825Z,9.27
2023-01-18T05:50:51.959Z,8.83
2023-01-18T05:53:20.908Z,9.20
2023-01-18T05:55:55.908Z,9.90
2023-01-18T05:58:22.668Z,8.17
2023-01-18T06:00:49.626Z,9.50
2023-01-18T06:03:16.446Z,9.20
2023-01-18T06:05:43.022Z,9.27
2023-01-18T06:08:09.683Z,9.80
2023-01-18T06:10:36.255Z,9.33
2023-01-18T06:13:05.372Z,9.33
2023-01-18T06:15:34.370Z,9.67
2023-01-18T06:18:01.134Z,9.83
2023-01-18T06:20:30.600Z,9.17
2023-01-18T06:22:58.564Z,9.03
2023-01-18T06:25:26.911Z,10.17
2023-01-18T06:27:53.492Z,9.40
2023-01-18T06:30:26.178Z,9.97
2023-01-18T06:32:55.327Z,9.47
2023-01-18T06:35:22.166Z,9.17
2023-01-18T06:37:48.862Z,9.83
2023-01-18T06:40:15.846Z,9.73
2023-01-18T06:42:42.811Z,9.40
2023-01-18T06:45:09.853Z,9.87
2023-01-18T06:47:36.423Z,9.97
2023-01-18T06:50:05.508Z,9.40
2023-01-18T06:52:32.190Z,10.07
2023-01-18T06:54:59.078Z,10.70
2023-01-18T06:57:25.742Z,10.30
2023-01-18T06:59:55.032Z,10.53
2023-01-18T07:02:21.978Z,10.00
2023-01-18T07:04:48.860Z,9.77
2023-01-18T07:07:15.647Z,10.90
2023-01-18T07:09:44.752Z,10.27
2023-01-18T07:12:13.719Z,10.53
2023-01-18T07:14:40.810Z,10.10
2023-01-18T07:17:08.881Z,10.53
2023-01-18T07:19:38.772Z,10.70
2023-01-18T07:22:07.826Z,10.40
2023-01-18T07:24:34.508Z,10.60
2023-01-18T07:27:01.180Z,11.20
2023-01-18T07:29:31.018Z,10.80
2023-01-18T07:31:57.952Z,11.10
2023-01-18T07:34:27.141Z,12.00
2023-01-18T07:36:54.401Z,11.00
2023-01-18T07:39:21.049Z,10.93
2023-01-18T07:41:47.754Z,12.03
2023-01-18T07:44:14.308Z,11.50
2023-01-18T07:46:43.192Z,11.63
2023-01-18T07:49:10.059Z,12.63
2023-01-18T07:51:36.915Z,12.53
2023-01-18T07:54:03.949Z,12.93
2023-01-18T07:56:30.845Z,12.30
2023-01-18T07:58:57.579Z,12.50
2023-01-18T08:01:25.105Z,12.43
2023-01-18T08:03:53.786Z,12.67
2023-01-18T08:06:25.577Z,12.33
2023-01-18T08:08:57.070Z,13.03
2023-01-18T08:11:26.397Z,12.47
2023-01-18T08:13:53.098Z,12.43
2023-01-18T08:16:20.107Z,12.77
2023-01-18T08:18:50.120Z,12.53
2023-01-18T08:21:19.236Z,13.07
2023-01-18T08:23:45.972Z,13.17
2023-01-18T08:26:15.415Z,12.70
2023-01-18T08:28:42.027Z,13.23
2023-01-18T08:31:17.868Z,12.50
2023-01-18T08:33:47.669Z,12.83
2023-01-18T08:36:25.550Z,11.40
2023-01-18T08:38:57.454Z,12.70
2023-01-18T08:41:28.515Z,11.77
2023-01-18T08:43:56.196Z,12.43
2023-01-18T08:46:23.432Z,11.63
2023-01-18T08:48:57.866Z,12.73
2023-01-18T08:51:26.447Z,11.57
2023-01-18T08:53:57.110Z,12.27
2023-01-18T08:56:23.866Z,12.50
2023-01-18T08:58:52.247Z,12.53
2023-01-18T09:01:19.159Z,13.00
2023-01-18T09:03:48.021Z,12.10
2023-01-18T09:06:16.848Z,12.73
2023-01-18T09:08:43.664Z,12.87
2023-01-18T09:11:10.792Z,12.87
2023-01-18T09:13:58.475Z,13.03
2023-01-18T09:16:26.361Z,11.87
2023-01-18T09:18:55.304Z,12.07
2023-01-18T09:21:21.956Z,12.50
2023-01-18T09:23:49.294Z,11.67
2023-01-18T09:26:17.608Z,11.83
2023-01-18T09:28:44.918Z,12.33
2023-01-18T09:31:12.483Z,12.43
2023-01-18T09:33:40.303Z,12.10
2023-01-18T09:36:10.087Z,12.33
2023-01-18T09:38:38.405Z,11.40
2023-01-18T09:41:24.840Z,11.47
2023-01-18T09:43:55.264Z,11.57
2023-01-18T09:46:23.846Z,11.47
2023-01-18T09:48:59.885Z,11.43
2023-01-18T09:51:42.132Z,11.10
2023-01-18T09:54:08.758Z,10.90
2023-01-18T09:56:46.675Z,10.90
2023-01-18T09:59:27.401Z,11.03
2023-01-18T10:01:56.089Z,10.53
2023-01-18T10:04:38.454Z,10.47
2023-01-18T10:07:17.047Z,10.60
2023-01-18T10:09:54.015Z,10.43
2023-01-18T10:12:41.070Z,10.03
2023-01-18T10:15:34.502Z,10.07
2023-01-18T10:18:01.355Z,9.67
2023-01-18T10:20:31.317Z,8.80
2023-01-18T10:23:04.026Z,9.80
2023-01-18T10:25:52.557Z,8.83
2023-01-18T10:28:41.275Z,9.20
2023-01-18T10:31:22.837Z,8.97
2023-01-18T10:33:54.735Z,9.50
2023-01-18T10:36:26.530Z,8.93
2023-01-18T10:38:55.565Z,9.57
2023-01-18T10:41:29.636Z,9.33
2023-01-18T10:43:56.790Z,9.33
2023-01-18T10:46:23.680Z,8.97
2023-01-18T10:48:52.752Z,9.27
2023-01-18T10:51:36.873Z,8.70
2023-01-18T10:54:19.079Z,9.80
2023-01-18T10:56:45.733Z,8.63
2023-01-18T10:59:25.405Z,8.73
2023-01-18T11:01:57.254Z,8.33
2023-01-18T11:04:30.062Z,8.77
2023-01-18T11:07:00.659Z,8.30
2023-01-18T11:09:39.691Z,8.73
2023-01-18T11:12:42.563Z,8.60
2023-01-18T11:15:15.653Z,8.03
2023-01-18T11:17:55.997Z,8.93
2023-01-18T11:20:30.259Z,8.37
2023-01-18T11:23:03.504Z,8.37
2023-01-18T11:25:42.758Z,8.37
2023-01-18T11:28:24.097Z,8.60
2023-01-18T11:31:05.738Z,8.57
2023-01-18T11:33:33.427Z,8.27
2023-01-18T11:36:05.155Z,7.93
2023-01-18T11:38:33.982Z,8.10
2023-01-18T11:41:06.856Z,7.93
2023-01-18T11:43:39.483Z,7.90
2023-01-18T11:46:36.953Z,7.33
2023-01-18T11:49:22.485Z,7.30
2023-01-18T11:51:57.233Z,6.97
2023-01-18T11:54:33.357Z,6.50
2023-01-18T11:57:02.978Z,6.90
2023-01-18T11:59:41.867Z,6.67
2023-01-18T12:02:14.499Z,6.47
2023-01-18T12:04:41.192Z,6.80
2023-01-18T12:07:10.887Z,6.60
2023-01-18T12:09:48.903Z,6.40
2023-01-18T12:12:38.467Z,5.87
2023-01-18T12:15:29.427Z,5.47
2023-01-18T12:18:26.903Z,6.00
2023-01-18T12:21:02.464Z,4.97
2023-01-18T12:24:06.734Z,5.30
2023-01-18T12:26:58.289Z,5.83
2023-01-18T12:29:52.729Z,5.00
2023-01-18T12:32:30.796Z,4.50
2023-01-18T12:35:25.208Z,4.37
2023-01-18T12:38:07.343Z,4.07
2023-01-18T12:40:44.803Z,4.77
2023-01-18T12:43:19.518Z,4.87
2023-01-18T12:46:09.345Z,4.22
2023-01-18T12:49:21.516Z,4.80
2023-01-18T12:51:53.074Z,3.75
2023-01-18T12:54:39.890Z,4.13
2023-01-18T12:57:07.852Z,3.67
2023-01-18T12:59:42.449Z,3.72
2023-01-18T13:02:29.813Z,4.10
2023-01-18T13:05:18.123Z,4.28
2023-01-18T13:08:06.420Z,3.72
2023-01-18T13:10:35.184Z,3.47
2023-01-18T13:13:04.168Z,3.17
2023-01-18T13:15:48.613Z,3.03
2023-01-18T13:18:27.110Z,3.90
2023-01-18T13:21:11.916Z,3.20
2023-01-18T13:23:57.227Z,3.20
2023-01-18T13:26:29.570Z,3.38
2023-01-18T13:29:29.876Z,2.90
2023-01-18T13:31:57.652Z,3.30
2023-01-18T13:34:31.431Z,3.13
2023-01-18T13:37:13.340Z,3.40
2023-01-18T13:39:47.589Z,3.40
2023-01-18T13:42:14.386Z,3.03
2023-01-18T13:44:48.230Z,3.17
2023-01-18T13:47:39.630Z,2.65
2023-01-18T13:50:28.256Z,3.00
2023-01-18T13:53:13.329Z,3.35
2023-01-18T13:56:00.220Z,3.03
2023-01-18T13:58:30.811Z,3.42
2023-01-18T14:01:03.586Z,3.55
2023-01-18T14:03:47.004Z,3.90
2023-01-18T14:06:24.965Z,3.13
2023-01-18T14:09:05.373Z,3.03
2023-01-18T14:11:37.781Z,3.63
2023-01-18T14:14:29.541Z,3.33
2023-01-18T14:17:08.854Z,3.60
2023-01-18T14:20:00.385Z,3.40
2023-01-18T14:22:37.630Z,3.67
2023-01-18T14:25:33.563Z,3.30
2023-01-18T14:28:14.628Z,3.50
2023-01-18T14:30:43.991Z,3.72
2023-01-18T14:33:16.526Z,3.10
2023-01-18T14:35:55.275Z,3.83
2023-01-18T14:38:22.019Z,3.77
2023-01-18T14:40:52.657Z,3.50
2023-01-18T14:43:45.625Z,3.80
2023-01-18T14:46:17.363Z,3.63
2023-01-18T14:48:56.291Z,3.17
2023-01-18T14:51:28.320Z,3.90
2023-01-18T14:54:00.763Z,4.00
2023-01-18T14:56:30.420Z,3.47
2023-01-18T14:58:59.775Z,3.53
2023-01-18T15:01:40.428Z,3.37
2023-01-18T15:04:20.219Z,3.60
2023-01-18T15:06:54.220Z,3.70
2023-01-18T15:09:22.547Z,4.00
2023-01-18T15:11:52.492Z,3.50
2023-01-18T15:14:29.317Z,3.50
2023-01-18T15:16:58.921Z,3.83
2023-01-18T15:19:40.530Z,3.53
2023-01-18T15:22:12.836Z,3.87
2023-01-18T15:24:41.991Z,3.43
2023-01-18T15:27:14.122Z,3.30
2023-01-18T15:29:45.915Z,4.20
2023-01-18T15:32:20.456Z,3.73
2023-01-18T15:34:49.763Z,3.27
2023-01-18T15:37:23.430Z,3.43
2023-01-18T15:40:04.058Z,3.37
2023-01-18T15:42:40.803Z,3.73
2023-01-18T15:45:18.588Z,4.27
2023-01-18T15:48:00.966Z,3.80
2023-01-18T15:50:44.408Z,3.80
2023-01-18T15:53:33.438Z,3.57
2023-01-18T15:56:07.519Z,3.77
2023-01-18T15:58:40.514Z,3.70
2023-01-18T16:01:17.070Z,4.13
2023-01-18T16:03:49.933Z,3.73
2023-01-18T16:06:22.951Z,3.73
2023-01-18T16:08:56.886Z,4.10
2023-01-18T16:11:53.328Z,3.97
2023-01-18T16:14:29.055Z,3.83
2023-01-18T16:17:07.976Z,4.30
2023-01-18T16:19:43.130Z,3.77
2023-01-18T16:22:18.848Z,4.50
2023-01-18T16:24:47.332Z,3.83
2023-01-18T16:27:20.242Z,4.40
2023-01-18T16:29:55.164Z,3.97
2023-01-18T16:32:21.803Z,4.40
2023-01-18T16:34:48.749Z,5.00
2023-01-18T16:37:17.222Z,4.63
2023-01-18T16:39:44.192Z,4.73
2023-01-18T16:42:12.266Z,4.40
2023-01-18T16:44:44.358Z,4.30
2023-01-18T16:47:12.302Z,5.27
2023-01-18T16:49:41.719Z,4.67
2023-01-18T16:52:12.756Z,4.73
2023-01-18T16:54:46.112Z,5.20
2023-01-18T16:57:21.044Z,5.90
2023-01-18T16:59:47.987Z,5.27
2023-01-18T17:02:15.102Z,5.90
2023-01-18T17:04:42.352Z,5.30
2023-01-18T17:07:09.901Z,5.83
2023-01-18T17:09:47.934Z,5.10
2023-01-18T17:12:17.875Z,5.53
2023-01-18T17:14:44.472Z,5.37
2023-01-18T17:17:11.277Z,5.63
2023-01-18T17:19:38.086Z,5.30
2023-01-18T17:22:05.018Z,5.17
2023-01-18T17:24:32.037Z,5.57
2023-01-18T17:26:58.677Z,5.80
2023-01-18T17:29:25.377Z,5.80
2023-01-18T17:31:53.053Z,5.77
2023-01-18T17:34:30.052Z,5.90
2023-01-18T17:36:58.782Z,5.83
2023-01-18T17:39:44.275Z,6.33
2023-01-18T17:42:29.847Z,5.40
2023-01-18T17:45:03.121Z,5.50
2023-01-18T17:47:34.918Z,5.27
2023-01-18T17:50:09.222Z,6.00
2023-01-18T17:52:37.260Z,5.87
2023-01-18T17:55:04.387Z,5.73
2023-01-18T17:57:31.136Z,6.00
2023-01-18T17:59:57.961Z,6.80
2023-01-18T18:02:25.554Z,5.80
2023-01-18T18:04:52.480Z,5.90
2023-01-18T18:07:19.219Z,6.17
2023-01-18T18:09:46.001Z,7.20
2023-01-18T18:12:12.741Z,6.17
2023-01-18T18:14:40.665Z,5.87
2023-01-18T18:17:07.987Z,6.67
2023-01-18T18:19:34.636Z,7.27
2023-01-18T18:22:01.890Z,5.93
2023-01-18T18:24:30.664Z,6.60
2023-01-18T18:27:03.027Z,6.43
2023-01-18T18:29:29.864Z,6.07
2023-01-18T18:31:56.764Z,6.10
2023-01-18T18:34:25.978Z,5.87
2023-01-18T18:36:52.673Z,6.47
2023-01-18T18:39:19.520Z,5.77
2023-01-18T18:41:48.698Z,6.27
2023-01-18T18:44:17.435Z,5.80
2023-01-18T18:46:44.010Z,5.93
2023-01-18T18:49:11.279Z,6.13
2023-01-18T18:51:37.897Z,5.83
2023-01-18T18:54:07.702Z,6.53
2023-01-18T18:56:34.442Z,5.67
2023-01-18T18:59:01.699Z,6.47
2023-01-18T19:01:30.174Z,6.50
2023-01-18T19:03:58.873Z,6.13
2023-01-18T19:06:26.438Z,5.10
2023-01-18T19:08:53.469Z,5.63
2023-01-18T19:11:21.034Z,5.80
2023-01-18T19:13:49.491Z,6.03
2023-01-18T19:16:17.086Z,6.27
2023-01-18T19:18:46.265Z,6.57
2023-01-18T19:21:12.980Z,5.43
2023-01-18T19:23:39.784Z,6.00
2023-01-18T19:26:06.573Z,6.57
2023-01-18T19:28:33.154Z,6.20
2023-01-18T19:31:05.611Z,6.23
2023-01-18T19:33:34.985Z,6.27
2023-01-18T19:36:16.706Z,6.17
2023-01-18T19:38:49.254Z,6.20
2023-01-18T19:41:19.237Z,5.80
2023-01-18T19:43:49.194Z,6.40
2023-01-18T19:46:16.497Z,6.50
2023-01-18T19:48:43.896Z,6.07
2023-01-18T19:51:21.627Z,6.33
2023-01-18T19:53:48.791Z,6.80
2023-01-18T19:56:15.439Z,6.80
2023-01-18T19:58:42.232Z,6.43
2023-01-18T20:01:20.445Z,6.53
2023-01-18T20:03:57.216Z,6.60
2023-01-18T20:06:24.030Z,5.90
2023-01-18T20:08:51.587Z,6.30
2023-01-18T20:11:18.587Z,7.40
2023-01-18T20:13:49.085Z,6.20
2023-01-18T20:16:21.971Z,6.30
2023-01-18T20:18:48.922Z,6.77
2023-01-18T20:21:18.484Z,7.30
2023-01-18T20:23:45.994Z,7.43
2023-01-18T20:26:17.939Z,7.07
2023-01-18T20:28:48.985Z,6.87
2023-01-18T20:31:15.577Z,6.13
2023-01-18T20:33:42.839Z,7.37
2023-01-18T20:36:11.830Z,7.47
2023-01-18T20:38:38.454Z,6.63
2023-01-18T20:41:07.241Z,7.70
2023-01-18T20:43:37.291Z,7.30
2023-01-18T20:46:06.511Z,6.70
2023-01-18T20:48:34.634Z,6.90
2023-01-18T20:51:02.614Z,6.37
2023-01-18T20:53:31.588Z,6.30
2023-01-18T20:56:17.035Z,6.73
2023-01-18T20:58:54.574Z,7.73
2023-01-18T21:01:21.517Z,6.90
2023-01-18T21:03:56.194Z,7.10
2023-01-18T21:06:23.247Z,6.77
2023-01-18T21:08:57.735Z,6.83
2023-01-18T21:11:26.797Z,6.90
2023-01-18T21:13:59.217Z,7.27
2023-01-18T21:16:27.846Z,7.63
2023-01-18T21:18:56.272Z,7.00
2023-01-18T21:21:23.914Z,7.77
2023-01-18T21:23:50.714Z,7.17
2023-01-18T21:26:19.774Z,7.10
2023-01-18T21:28:46.355Z,7.37
2023-01-18T21:31:13.032Z,7.67
2023-01-18T21:33:40.010Z,7.77
2023-01-18T21:36:11.424Z,7.27
2023-01-18T21:38:39.627Z,7.53
2023-01-18T21:41:38.497Z,7.70
2023-01-18T21:44:23.657Z,7.37
2023-01-18T21:46:51.916Z,7.80
2023-01-18T21:52:43.794Z,8.40
2023-01-18T21:55:10.466Z,8.70
2023-01-18T21:57:39.263Z,8.27
2023-01-18T22:00:07.059Z,8.53
2023-01-18T22:02:34.991Z,8.37
2023-01-18T22:05:03.589Z,8.40
2023-01-18T22:07:35.361Z,9.17
2023-01-18T22:10:16.081Z,9.30
2023-01-18T22:12:45.087Z,8.83
2023-01-18T22:15:11.915Z,8.70
2023-01-18T22:17:38.479Z,8.83
2023-01-18T22:20:05.482Z,8.87
2023-01-18T22:22:33.897Z,9.77
2023-01-18T22:25:02.279Z,9.57
2023-01-18T22:27:29.222Z,9.87
2023-01-18T22:29:55.924Z,9.27
2023-01-18T22:32:22.718Z,10.03
2023-01-18T22:34:49.311Z,9.57
2023-01-18T22:37:15.910Z,10.50
2023-01-18T22:39:42.671Z,9.87
2023-01-18T22:42:09.258Z,9.97
2023-01-18T22:44:37.085Z,10.63
2023-01-18T22:47:06.347Z,10.30
2023-01-18T22:49:33.220Z,10.83
2023-01-18T22:51:59.923Z,11.43
2023-01-18T22:54:31.523Z,11.17
2023-01-18T22:57:00.667Z,10.13
2023-01-18T22:59:27.316Z,10.83
2023-01-18T23:01:53.962Z,10.83
2023-01-18T23:04:20.747Z,9.97
2023-01-18T23:06:48.983Z,10.30
2023-01-18T23:09:17.699Z,9.40
2023-01-18T23:11:46.228Z,10.10
2023-01-18T23:14:31.852Z,9.77
2023-01-18T23:17:16.827Z,9.93
2023-01-18T23:19:44.154Z,9.63
2023-01-18T23:22:15.094Z,10.33
2023-01-18T23:24:44.224Z,9.43
2023-01-18T23:27:13.474Z,11.20
2023-01-18T23:29:40.375Z,10.13
2023-01-18T23:32:07.400Z,10.40
2023-01-18T23:34:34.281Z,10.47
2023-01-18T23:37:01.092Z,10.27
2023-01-18T23:39:46.711Z,10.47
2023-01-18T23:42:32.098Z,10.50
2023-01-18T23:45:17.329Z,10.63
2023-01-18T23:48:02.907Z,11.30
2023-01-18T23:50:48.350Z,11.17
2023-01-18T23:53:36.240Z,11.07
2023-01-18T23:56:02.929Z,10.80
2023-01-18T23:58:32.561Z,10.77
